sensor_id;sensor_type;location;lat;lon;timestamp;P1;durP1;ratioP1;P2;durP2;ratioP2
9821;SDS011;4950;46.042;14.472;2022-12-31T00:00:37;10.80;;;9.70;;
9821;SDS011;4950;46.042;14.472;2022-12-31T00:03:05;9.83;;;8.10;;
9821;SDS011;4950;46.042;14.472;2022-12-31T00:05:33;9.93;;;7.40;;
9821;SDS011;4950;46.042;14.472;2022-12-31T00:08:01;11.23;;;8.40;;
9821;SDS011;4950;46.042;14.472;2022-12-31T00:10:28;10.60;;;8.00;;
9821;SDS011;4950;46.042;14.472;2022-12-31T00:12:57;11.63;;;8.90;;
9821;SDS011;4950;46.042;14.472;2022-12-31T00:15:23;13.20;;;8.80;;
9821;SDS011;4950;46.042;14.472;2022-12-31T00:17:50;9.53;;;8.53;;
9821;SDS011;4950;46.042;14.472;2022-12-31T00:20:18;9.60;;;8.60;;
9821;SDS011;4950;46.042;14.472;2022-12-31T00:22:44;13.83;;;9.47;;
9821;SDS011;4950;46.042;14.472;2022-12-31T00:25:11;10.53;;;9.17;;
9821;SDS011;4950;46.042;14.472;2022-12-31T00:27:38;10.07;;;8.60;;
9821;SDS011;4950;46.042;14.472;2022-12-31T00:30:04;10.97;;;8.63;;
9821;SDS011;4950;46.042;14.472;2022-12-31T00:32:32;11.10;;;9.03;;
9821;SDS011;4950;46.042;14.472;2022-12-31T00:34:58;9.17;;;7.60;;
9821;SDS011;4950;46.042;14.472;2022-12-31T00:37:26;7.83;;;7.03;;
9821;SDS011;4950;46.042;14.472;2022-12-31T00:39:53;9.53;;;6.73;;
9821;SDS011;4950;46.042;14.472;2022-12-31T00:42:20;8.47;;;6.80;;
9821;SDS011;4950;46.042;14.472;2022-12-31T00:44:46;9.80;;;6.77;;
9821;SDS011;4950;46.042;14.472;2022-12-31T00:47:13;8.83;;;6.40;;
9821;SDS011;4950;46.042;14.472;2022-12-31T00:49:39;11.13;;;5.73;;
9821;SDS011;4950;46.042;14.472;2022-12-31T00:52:06;7.17;;;6.00;;
9821;SDS011;4950;46.042;14.472;2022-12-31T00:54:34;11.60;;;6.07;;
9821;SDS011;4950;46.042;14.472;2022-12-31T00:57:01;6.90;;;5.00;;
9821;SDS011;4950;46.042;14.472;2022-12-31T00:59:27;9.93;;;6.57;;
9821;SDS011;4950;46.042;14.472;2022-12-31T01:01:54;6.80;;;6.10;;
9821;SDS011;4950;46.042;14.472;2022-12-31T01:04:20;6.40;;;5.13;;
9821;SDS011;4950;46.042;14.472;2022-12-31T01:06:47;6.50;;;4.90;;
9821;SDS011;4950;46.042;14.472;2022-12-31T01:09:14;6.77;;;5.13;;
9821;SDS011;4950;46.042;14.472;2022-12-31T01:11:43;6.07;;;5.10;;
9821;SDS011;4950;46.042;14.472;2022-12-31T01:14:10;6.13;;;5.53;;
9821;SDS011;4950;46.042;14.472;2022-12-31T01:16:39;5.40;;;4.90;;
9821;SDS011;4950;46.042;14.472;2022-12-31T01:19:08;10.03;;;5.17;;
9821;SDS011;4950;46.042;14.472;2022-12-31T01:21:37;8.03;;;4.87;;
9821;SDS011;4950;46.042;14.472;2022-12-31T01:24:05;7.00;;;4.60;;
9821;SDS011;4950;46.042;14.472;2022-12-31T01:26:32;7.23;;;4.70;;
9821;SDS011;4950;46.042;14.472;2022-12-31T01:29:01;7.73;;;5.23;;
9821;SDS011;4950;46.042;14.472;2022-12-31T01:31:28;5.97;;;5.27;;
9821;SDS011;4950;46.042;14.472;2022-12-31T01:33:55;7.13;;;4.80;;
9821;SDS011;4950;46.042;14.472;2022-12-31T01:36:24;7.03;;;5.10;;
9821;SDS011;4950;46.042;14.472;2022-12-31T01:38:54;8.57;;;5.07;;
9821;SDS011;4950;46.042;14.472;2022-12-31T01:41:23;7.70;;;4.70;;
9821;SDS011;4950;46.042;14.472;2022-12-31T01:43:53;8.67;;;5.20;;
9821;SDS011;4950;46.042;14.472;2022-12-31T01:46:25;7.87;;;4.80;;
9821;SDS011;4950;46.042;14.472;2022-12-31T01:48:59;6.10;;;4.53;;
9821;SDS011;4950;46.042;14.472;2022-12-31T01:51:28;6.07;;;4.60;;
9821;SDS011;4950;46.042;14.472;2022-12-31T01:53:58;7.93;;;5.03;;
9821;SDS011;4950;46.042;14.472;2022-12-31T01:56:27;7.10;;;4.60;;
9821;SDS011;4950;46.042;14.472;2022-12-31T01:58:54;7.63;;;4.67;;
9821;SDS011;4950;46.042;14.472;2022-12-31T02:01:25;7.13;;;4.73;;
9821;SDS011;4950;46.042;14.472;2022-12-31T02:03:56;5.40;;;4.70;;
9821;SDS011;4950;46.042;14.472;2022-12-31T02:06:25;5.67;;;4.30;;
9821;SDS011;4950;46.042;14.472;2022-12-31T02:08:56;7.57;;;4.67;;
9821;SDS011;4950;46.042;14.472;2022-12-31T02:11:25;5.83;;;4.93;;
9821;SDS011;4950;46.042;14.472;2022-12-31T02:13:54;7.77;;;4.47;;
9821;SDS011;4950;46.042;14.472;2022-12-31T02:16:26;6.03;;;4.60;;
9821;SDS011;4950;46.042;14.472;2022-12-31T02:19:01;6.43;;;4.17;;
9821;SDS011;4950;46.042;14.472;2022-12-31T02:21:43;6.70;;;4.37;;
9821;SDS011;4950;46.042;14.472;2022-12-31T02:24:31;6.27;;;4.70;;
9821;SDS011;4950;46.042;14.472;2022-12-31T02:27:21;9.00;;;5.17;;
9821;SDS011;4950;46.042;14.472;2022-12-31T02:30:03;8.37;;;5.00;;
9821;SDS011;4950;46.042;14.472;2022-12-31T02:32:39;9.13;;;5.00;;
9821;SDS011;4950;46.042;14.472;2022-12-31T02:35:14;6.50;;;5.13;;
9821;SDS011;4950;46.042;14.472;2022-12-31T02:37:46;7.50;;;5.50;;
9821;SDS011;4950;46.042;14.472;2022-12-31T02:40:18;6.77;;;5.30;;
9821;SDS011;4950;46.042;14.472;2022-12-31T02:42:47;5.37;;;4.87;;
9821;SDS011;4950;46.042;14.472;2022-12-31T02:45:16;6.23;;;5.50;;
9821;SDS011;4950;46.042;14.472;2022-12-31T02:47:50;8.30;;;5.33;;
9821;SDS011;4950;46.042;14.472;2022-12-31T02:50:28;6.97;;;5.20;;
9821;SDS011;4950;46.042;14.472;2022-12-31T02:53:07;7.70;;;5.17;;
9821;SDS011;4950;46.042;14.472;2022-12-31T02:55:48;7.47;;;5.90;;
9821;SDS011;4950;46.042;14.472;2022-12-31T02:58:21;6.57;;;5.80;;
9821;SDS011;4950;46.042;14.472;2022-12-31T03:01:18;5.83;;;5.23;;
9821;SDS011;4950;46.042;14.472;2022-12-31T03:04:04;7.93;;;5.83;;
9821;SDS011;4950;46.042;14.472;2022-12-31T03:06:44;7.70;;;6.30;;
9821;SDS011;4950;46.042;14.472;2022-12-31T03:09:12;7.43;;;6.40;;
9821;SDS011;4950;46.042;14.472;2022-12-31T03:11:38;6.77;;;6.07;;
9821;SDS011;4950;46.042;14.472;2022-12-31T03:14:22;7.60;;;6.00;;
9821;SDS011;4950;46.042;14.472;2022-12-31T03:16:51;6.30;;;5.70;;
9821;SDS011;4950;46.042;14.472;2022-12-31T03:19:17;8.87;;;6.27;;
9821;SDS011;4950;46.042;14.472;2022-12-31T03:22:02;7.83;;;5.63;;
9821;SDS011;4950;46.042;14.472;2022-12-31T03:24:46;7.60;;;5.93;;
9821;SDS011;4950;46.042;14.472;2022-12-31T03:27:31;7.93;;;6.23;;
9821;SDS011;4950;46.042;14.472;2022-12-31T03:29:58;8.57;;;5.83;;
9821;SDS011;4950;46.042;14.472;2022-12-31T03:32:26;9.33;;;6.17;;
9821;SDS011;4950;46.042;14.472;2022-12-31T03:34:53;7.20;;;5.67;;
9821;SDS011;4950;46.042;14.472;2022-12-31T03:37:19;7.33;;;6.60;;
9821;SDS011;4950;46.042;14.472;2022-12-31T03:39:47;8.97;;;6.57;;
9821;SDS011;4950;46.042;14.472;2022-12-31T03:42:13;7.93;;;7.13;;
9821;SDS011;4950;46.042;14.472;2022-12-31T03:44:40;9.57;;;7.10;;
9821;SDS011;4950;46.042;14.472;2022-12-31T03:47:06;9.10;;;6.60;;
9821;SDS011;4950;46.042;14.472;2022-12-31T03:49:34;9.20;;;6.57;;
9821;SDS011;4950;46.042;14.472;2022-12-31T03:52:01;9.10;;;6.97;;
9821;SDS011;4950;46.042;14.472;2022-12-31T03:54:30;9.07;;;6.13;;
9821;SDS011;4950;46.042;14.472;2022-12-31T03:56:57;6.93;;;6.03;;
9821;SDS011;4950;46.042;14.472;2022-12-31T03:59:23;8.90;;;6.83;;
9821;SDS011;4950;46.042;14.472;2022-12-31T04:01:50;8.37;;;6.77;;
9821;SDS011;4950;46.042;14.472;2022-12-31T04:04:16;6.30;;;5.70;;
9821;SDS011;4950;46.042;14.472;2022-12-31T04:06:44;9.37;;;5.87;;
9821;SDS011;4950;46.042;14.472;2022-12-31T04:09:11;8.67;;;5.90;;
9821;SDS011;4950;46.042;14.472;2022-12-31T04:11:38;7.93;;;5.97;;
9821;SDS011;4950;46.042;14.472;2022-12-31T04:14:04;9.27;;;5.80;;
9821;SDS011;4950;46.042;14.472;2022-12-31T04:16:31;7.83;;;5.87;;
9821;SDS011;4950;46.042;14.472;2022-12-31T04:18:57;6.77;;;5.10;;
9821;SDS011;4950;46.042;14.472;2022-12-31T04:21:24;7.70;;;5.10;;
9821;SDS011;4950;46.042;14.472;2022-12-31T04:23:52;6.30;;;5.70;;
9821;SDS011;4950;46.042;14.472;2022-12-31T04:26:19;9.87;;;6.07;;
9821;SDS011;4950;46.042;14.472;2022-12-31T04:28:45;6.97;;;5.60;;
9821;SDS011;4950;46.042;14.472;2022-12-31T04:31:12;6.47;;;5.87;;
9821;SDS011;4950;46.042;14.472;2022-12-31T04:33:39;7.97;;;5.93;;
9821;SDS011;4950;46.042;14.472;2022-12-31T04:36:06;6.43;;;5.13;;
9821;SDS011;4950;46.042;14.472;2022-12-31T04:38:33;6.63;;;5.03;;
9821;SDS011;4950;46.042;14.472;2022-12-31T04:41:01;7.53;;;6.83;;
9821;SDS011;4950;46.042;14.472;2022-12-31T04:43:45;10.70;;;7.20;;
9821;SDS011;4950;46.042;14.472;2022-12-31T04:46:13;7.77;;;6.93;;
9821;SDS011;4950;46.042;14.472;2022-12-31T04:48:41;9.33;;;6.60;;
9821;SDS011;4950;46.042;14.472;2022-12-31T04:51:08;6.70;;;6.07;;
9821;SDS011;4950;46.042;14.472;2022-12-31T04:53:35;7.23;;;6.43;;
9821;SDS011;4950;46.042;14.472;2022-12-31T04:56:03;11.50;;;7.20;;
9821;SDS011;4950;46.042;14.472;2022-12-31T04:58:30;7.17;;;6.23;;
9821;SDS011;4950;46.042;14.472;2022-12-31T05:00:57;8.87;;;6.57;;
9821;SDS011;4950;46.042;14.472;2022-12-31T05:03:25;7.20;;;6.20;;
9821;SDS011;4950;46.042;14.472;2022-12-31T05:05:52;9.53;;;6.93;;
9821;SDS011;4950;46.042;14.472;2022-12-31T05:08:20;8.97;;;6.50;;
9821;SDS011;4950;46.042;14.472;2022-12-31T05:10:47;7.00;;;6.30;;
9821;SDS011;4950;46.042;14.472;2022-12-31T05:13:15;8.27;;;6.57;;
9821;SDS011;4950;46.042;14.472;2022-12-31T05:15:42;6.87;;;5.73;;
9821;SDS011;4950;46.042;14.472;2022-12-31T05:18:11;8.60;;;6.10;;
9821;SDS011;4950;46.042;14.472;2022-12-31T05:20:38;9.60;;;5.87;;
9821;SDS011;4950;46.042;14.472;2022-12-31T05:23:04;8.73;;;6.03;;
9821;SDS011;4950;46.042;14.472;2022-12-31T05:25:31;9.00;;;7.00;;
9821;SDS011;4950;46.042;14.472;2022-12-31T05:27:58;9.20;;;7.00;;
9821;SDS011;4950;46.042;14.472;2022-12-31T05:30:26;11.10;;;7.03;;
9821;SDS011;4950;46.042;14.472;2022-12-31T05:32:53;9.50;;;7.83;;
9821;SDS011;4950;46.042;14.472;2022-12-31T05:35:19;9.60;;;8.23;;
9821;SDS011;4950;46.042;14.472;2022-12-31T05:37:46;10.27;;;8.27;;
9821;SDS011;4950;46.042;14.472;2022-12-31T05:40:13;10.93;;;9.20;;
9821;SDS011;4950;46.042;14.472;2022-12-31T05:42:39;11.23;;;8.43;;
9821;SDS011;4950;46.042;14.472;2022-12-31T05:45:06;9.63;;;8.63;;
9821;SDS011;4950;46.042;14.472;2022-12-31T05:47:38;9.37;;;8.47;;
9821;SDS011;4950;46.042;14.472;2022-12-31T05:50:05;11.77;;;8.13;;
9821;SDS011;4950;46.042;14.472;2022-12-31T05:52:32;11.93;;;8.57;;
9821;SDS011;4950;46.042;14.472;2022-12-31T05:54:59;11.17;;;8.83;;
9821;SDS011;4950;46.042;14.472;2022-12-31T05:57:26;10.07;;;8.47;;
9821;SDS011;4950;46.042;14.472;2022-12-31T05:59:52;9.37;;;8.27;;
9821;SDS011;4950;46.042;14.472;2022-12-31T06:02:19;9.73;;;8.63;;
9821;SDS011;4950;46.042;14.472;2022-12-31T06:04:47;10.23;;;8.00;;
9821;SDS011;4950;46.042;14.472;2022-12-31T06:07:14;11.97;;;8.87;;
9821;SDS011;4950;46.042;14.472;2022-12-31T06:09:41;11.20;;;8.57;;
9821;SDS011;4950;46.042;14.472;2022-12-31T06:12:07;9.90;;;8.90;;
9821;SDS011;4950;46.042;14.472;2022-12-31T06:14:34;12.50;;;9.63;;
9821;SDS011;4950;46.042;14.472;2022-12-31T06:17:00;10.67;;;9.47;;
9821;SDS011;4950;46.042;14.472;2022-12-31T06:19:27;11.50;;;9.83;;
9821;SDS011;4950;46.042;14.472;2022-12-31T06:21:55;13.37;;;10.77;;
9821;SDS011;4950;46.042;14.472;2022-12-31T06:24:22;11.43;;;9.77;;
9821;SDS011;4950;46.042;14.472;2022-12-31T06:26:48;14.27;;;11.10;;
9821;SDS011;4950;46.042;14.472;2022-12-31T06:29:15;13.73;;;10.63;;
9821;SDS011;4950;46.042;14.472;2022-12-31T06:31:42;12.13;;;10.33;;
9821;SDS011;4950;46.042;14.472;2022-12-31T06:34:09;11.80;;;10.60;;
9821;SDS011;4950;46.042;14.472;2022-12-31T06:36:36;11.73;;;10.53;;
9821;SDS011;4950;46.042;14.472;2022-12-31T06:39:04;11.53;;;10.33;;
9821;SDS011;4950;46.042;14.472;2022-12-31T06:41:31;14.03;;;11.30;;
9821;SDS011;4950;46.042;14.472;2022-12-31T06:43:58;12.57;;;11.40;;
9821;SDS011;4950;46.042;14.472;2022-12-31T06:46:25;12.07;;;10.20;;
9821;SDS011;4950;46.042;14.472;2022-12-31T06:48:51;11.67;;;10.43;;
9821;SDS011;4950;46.042;14.472;2022-12-31T06:51:18;12.50;;;10.37;;
9821;SDS011;4950;46.042;14.472;2022-12-31T06:53:47;11.80;;;10.60;;
9821;SDS011;4950;46.042;14.472;2022-12-31T06:56:17;13.17;;;11.53;;
9821;SDS011;4950;46.042;14.472;2022-12-31T06:58:46;12.50;;;10.77;;
9821;SDS011;4950;46.042;14.472;2022-12-31T07:07:18;13.50;;;11.87;;
9821;SDS011;4950;46.042;14.472;2022-12-31T07:09:51;13.97;;;11.47;;
9821;SDS011;4950;46.042;14.472;2022-12-31T07:12:37;11.47;;;10.30;;
9821;SDS011;4950;46.042;14.472;2022-12-31T07:15:18;12.20;;;10.13;;
9821;SDS011;4950;46.042;14.472;2022-12-31T07:17:59;13.17;;;10.77;;
9821;SDS011;4950;46.042;14.472;2022-12-31T07:20:32;12.37;;;10.80;;
9821;SDS011;4950;46.042;14.472;2022-12-31T07:22:59;11.50;;;10.27;;
9821;SDS011;4950;46.042;14.472;2022-12-31T07:25:26;9.63;;;8.57;;
9821;SDS011;4950;46.042;14.472;2022-12-31T07:27:58;10.70;;;8.87;;
9821;SDS011;4950;46.042;14.472;2022-12-31T07:30:38;15.20;;;9.10;;
9821;SDS011;4950;46.042;14.472;2022-12-31T07:33:16;9.33;;;8.37;;
9821;SDS011;4950;46.042;14.472;2022-12-31T07:36:00;11.50;;;9.23;;
9821;SDS011;4950;46.042;14.472;2022-12-31T07:38:36;9.63;;;8.20;;
9821;SDS011;4950;46.042;14.472;2022-12-31T07:41:08;8.60;;;7.70;;
9821;SDS011;4950;46.042;14.472;2022-12-31T07:43:54;8.87;;;7.83;;
9821;SDS011;4950;46.042;14.472;2022-12-31T07:46:30;9.60;;;7.70;;
9821;SDS011;4950;46.042;14.472;2022-12-31T07:49:02;8.13;;;7.33;;
9821;SDS011;4950;46.042;14.472;2022-12-31T07:51:29;8.97;;;7.93;;
9821;SDS011;4950;46.042;14.472;2022-12-31T07:53:56;11.53;;;7.63;;
9821;SDS011;4950;46.042;14.472;2022-12-31T07:56:23;8.47;;;7.63;;
9821;SDS011;4950;46.042;14.472;2022-12-31T07:58:53;9.07;;;7.60;;
9821;SDS011;4950;46.042;14.472;2022-12-31T08:01:32;10.07;;;8.33;;
9821;SDS011;4950;46.042;14.472;2022-12-31T08:04:06;10.80;;;8.43;;
9821;SDS011;4950;46.042;14.472;2022-12-31T08:06:40;14.37;;;7.67;;
9821;SDS011;4950;46.042;14.472;2022-12-31T08:09:18;8.13;;;7.20;;
9821;SDS011;4950;46.042;14.472;2022-12-31T08:11:55;10.87;;;6.47;;
9821;SDS011;4950;46.042;14.472;2022-12-31T08:14:24;8.77;;;6.60;;
9821;SDS011;4950;46.042;14.472;2022-12-31T08:16:52;8.10;;;7.00;;
9821;SDS011;4950;46.042;14.472;2022-12-31T08:19:22;8.17;;;6.23;;
9821;SDS011;4950;46.042;14.472;2022-12-31T08:21:53;6.63;;;5.93;;
9821;SDS011;4950;46.042;14.472;2022-12-31T08:24:29;9.37;;;6.83;;
9821;SDS011;4950;46.042;14.472;2022-12-31T08:27:05;9.13;;;6.10;;
9821;SDS011;4950;46.042;14.472;2022-12-31T08:29:43;5.73;;;4.77;;
9821;SDS011;4950;46.042;14.472;2022-12-31T08:32:21;7.10;;;4.50;;
9821;SDS011;4950;46.042;14.472;2022-12-31T08:34:53;6.53;;;4.37;;
9821;SDS011;4950;46.042;14.472;2022-12-31T08:37:30;7.30;;;4.60;;
9821;SDS011;4950;46.042;14.472;2022-12-31T08:42:48;6.03;;;4.17;;
9821;SDS011;4950;46.042;14.472;2022-12-31T08:45:32;4.70;;;3.90;;
9821;SDS011;4950;46.042;14.472;2022-12-31T08:48:04;5.90;;;4.13;;
9821;SDS011;4950;46.042;14.472;2022-12-31T08:50:42;11.03;;;4.47;;
9821;SDS011;4950;46.042;14.472;2022-12-31T08:53:09;4.83;;;3.90;;
9821;SDS011;4950;46.042;14.472;2022-12-31T08:55:37;5.93;;;4.43;;
9821;SDS011;4950;46.042;14.472;2022-12-31T08:58:07;7.40;;;4.60;;
9821;SDS011;4950;46.042;14.472;2022-12-31T09:00:45;6.77;;;4.57;;
9821;SDS011;4950;46.042;14.472;2022-12-31T09:03:18;6.33;;;4.20;;
9821;SDS011;4950;46.042;14.472;2022-12-31T09:05:52;7.57;;;4.43;;
9821;SDS011;4950;46.042;14.472;2022-12-31T09:08:27;7.47;;;4.40;;
9821;SDS011;4950;46.042;14.472;2022-12-31T09:11:03;6.27;;;5.20;;
9821;SDS011;4950;46.042;14.472;2022-12-31T09:13:38;6.37;;;4.37;;
9821;SDS011;4950;46.042;14.472;2022-12-31T09:16:18;9.00;;;5.00;;
9821;SDS011;4950;46.042;14.472;2022-12-31T09:18:52;6.50;;;4.90;;
9821;SDS011;4950;46.042;14.472;2022-12-31T09:21:19;7.57;;;5.47;;
9821;SDS011;4950;46.042;14.472;2022-12-31T09:23:46;8.10;;;5.77;;
9821;SDS011;4950;46.042;14.472;2022-12-31T09:26:17;7.30;;;6.07;;
9821;SDS011;4950;46.042;14.472;2022-12-31T09:29:00;6.40;;;5.77;;
9821;SDS011;4950;46.042;14.472;2022-12-31T09:31:35;7.97;;;5.87;;
9821;SDS011;4950;46.042;14.472;2022-12-31T09:34:10;8.03;;;6.17;;
9821;SDS011;4950;46.042;14.472;2022-12-31T09:36:45;7.17;;;6.03;;
9821;SDS011;4950;46.042;14.472;2022-12-31T09:39:18;8.67;;;6.40;;
9821;SDS011;4950;46.042;14.472;2022-12-31T09:42:03;9.90;;;5.83;;
9821;SDS011;4950;46.042;14.472;2022-12-31T09:48:10;6.90;;;6.00;;
9821;SDS011;4950;46.042;14.472;2022-12-31T09:50:56;6.23;;;5.63;;
9821;SDS011;4950;46.042;14.472;2022-12-31T09:53:38;6.67;;;5.63;;
9821;SDS011;4950;46.042;14.472;2022-12-31T09:56:22;6.23;;;5.10;;
9821;SDS011;4950;46.042;14.472;2022-12-31T09:58:56;7.37;;;5.23;;
9821;SDS011;4950;46.042;14.472;2022-12-31T10:01:33;7.30;;;4.90;;
9821;SDS011;4950;46.042;14.472;2022-12-31T10:04:24;9.30;;;5.27;;
9821;SDS011;4950;46.042;14.472;2022-12-31T10:07:04;5.23;;;4.53;;
9821;SDS011;4950;46.042;14.472;2022-12-31T10:09:50;6.40;;;4.33;;
9821;SDS011;4950;46.042;14.472;2022-12-31T10:12:32;6.93;;;4.90;;
9821;SDS011;4950;46.042;14.472;2022-12-31T10:15:18;6.90;;;5.07;;
9821;SDS011;4950;46.042;14.472;2022-12-31T10:18:06;6.10;;;5.13;;
9821;SDS011;4950;46.042;14.472;2022-12-31T10:20:48;6.07;;;5.30;;
9821;SDS011;4950;46.042;14.472;2022-12-31T10:23:25;6.67;;;5.13;;
9821;SDS011;4950;46.042;14.472;2022-12-31T10:26:25;6.47;;;5.03;;
9821;SDS011;4950;46.042;14.472;2022-12-31T10:29:05;6.30;;;4.93;;
9821;SDS011;4950;46.042;14.472;2022-12-31T10:31:42;5.20;;;4.67;;
9821;SDS011;4950;46.042;14.472;2022-12-31T10:34:21;6.93;;;4.43;;
9821;SDS011;4950;46.042;14.472;2022-12-31T10:36:54;6.43;;;4.70;;
9821;SDS011;4950;46.042;14.472;2022-12-31T10:39:35;8.20;;;4.67;;
9821;SDS011;4950;46.042;14.472;2022-12-31T10:48:28;8.37;;;4.80;;
9821;SDS011;4950;46.042;14.472;2022-12-31T10:54:20;7.67;;;4.70;;
9821;SDS011;4950;46.042;14.472;2022-12-31T10:57:14;6.43;;;4.70;;
9821;SDS011;4950;46.042;14.472;2022-12-31T11:00:05;5.63;;;4.93;;
9821;SDS011;4950;46.042;14.472;2022-12-31T11:11:46;6.35;;;4.38;;
9821;SDS011;4950;46.042;14.472;2022-12-31T11:14:31;7.50;;;4.55;;
9821;SDS011;4950;46.042;14.472;2022-12-31T11:17:20;5.70;;;3.90;;
9821;SDS011;4950;46.042;14.472;2022-12-31T11:19:59;5.40;;;4.18;;
9821;SDS011;4950;46.042;14.472;2022-12-31T11:22:42;5.17;;;3.80;;
9821;SDS011;4950;46.042;14.472;2022-12-31T11:25:22;4.17;;;3.50;;
9821;SDS011;4950;46.042;14.472;2022-12-31T11:28:06;6.18;;;4.00;;
9821;SDS011;4950;46.042;14.472;2022-12-31T11:30:40;4.05;;;3.65;;
9821;SDS011;4950;46.042;14.472;2022-12-31T11:33:20;5.72;;;3.70;;
9821;SDS011;4950;46.042;14.472;2022-12-31T11:35:59;6.38;;;4.32;;
9821;SDS011;4950;46.042;14.472;2022-12-31T11:38:39;5.72;;;3.88;;
9821;SDS011;4950;46.042;14.472;2022-12-31T11:41:11;5.03;;;3.90;;
9821;SDS011;4950;46.042;14.472;2022-12-31T11:43:50;5.70;;;3.85;;
9821;SDS011;4950;46.042;14.472;2022-12-31T11:55:22;5.82;;;4.40;;
9821;SDS011;4950;46.042;14.472;2022-12-31T11:57:57;4.63;;;3.33;;
9821;SDS011;4950;46.042;14.472;2022-12-31T12:00:29;5.20;;;2.92;;
9821;SDS011;4950;46.042;14.472;2022-12-31T12:02:58;3.70;;;2.53;;
9821;SDS011;4950;46.042;14.472;2022-12-31T12:05:27;2.35;;;2.15;;
9821;SDS011;4950;46.042;14.472;2022-12-31T12:07:54;3.67;;;2.67;;
9821;SDS011;4950;46.042;14.472;2022-12-31T12:10:23;4.85;;;2.60;;
9821;SDS011;4950;46.042;14.472;2022-12-31T12:12:51;3.28;;;2.47;;
9821;SDS011;4950;46.042;14.472;2022-12-31T12:15:21;4.47;;;2.80;;
9821;SDS011;4950;46.042;14.472;2022-12-31T12:17:52;3.33;;;2.50;;
9821;SDS011;4950;46.042;14.472;2022-12-31T12:20:25;3.03;;;2.70;;
9821;SDS011;4950;46.042;14.472;2022-12-31T12:22:56;2.97;;;2.65;;
9821;SDS011;4950;46.042;14.472;2022-12-31T12:25:24;5.32;;;2.92;;
9821;SDS011;4950;46.042;14.472;2022-12-31T12:28:09;7.10;;;2.67;;
9821;SDS011;4950;46.042;14.472;2022-12-31T12:30:42;4.87;;;2.57;;
9821;SDS011;4950;46.042;14.472;2022-12-31T12:33:14;4.77;;;2.70;;
9821;SDS011;4950;46.042;14.472;2022-12-31T12:35:43;3.67;;;3.00;;
9821;SDS011;4950;46.042;14.472;2022-12-31T12:38:12;4.43;;;2.60;;
9821;SDS011;4950;46.042;14.472;2022-12-31T12:40:40;3.63;;;2.77;;
9821;SDS011;4950;46.042;14.472;2022-12-31T12:43:19;5.23;;;2.73;;
9821;SDS011;4950;46.042;14.472;2022-12-31T12:45:48;3.33;;;2.80;;
9821;SDS011;4950;46.042;14.472;2022-12-31T12:48:17;5.17;;;2.87;;
9821;SDS011;4950;46.042;14.472;2022-12-31T12:50:50;4.07;;;2.83;;
9821;SDS011;4950;46.042;14.472;2022-12-31T12:56:07;4.00;;;3.20;;
9821;SDS011;4950;46.042;14.472;2022-12-31T12:58:47;4.47;;;3.20;;
9821;SDS011;4950;46.042;14.472;2022-12-31T13:01:28;4.53;;;3.40;;
9821;SDS011;4950;46.042;14.472;2022-12-31T13:04:28;8.03;;;3.70;;
9821;SDS011;4950;46.042;14.472;2022-12-31T13:07:15;4.60;;;3.07;;
9821;SDS011;4950;46.042;14.472;2022-12-31T13:10:00;4.03;;;3.27;;
9821;SDS011;4950;46.042;14.472;2022-12-31T13:12:42;4.27;;;3.43;;
9821;SDS011;4950;46.042;14.472;2022-12-31T13:15:17;4.00;;;2.77;;
9821;SDS011;4950;46.042;14.472;2022-12-31T13:17:56;4.57;;;3.27;;
9821;SDS011;4950;46.042;14.472;2022-12-31T13:20:31;4.23;;;3.07;;
9821;SDS011;4950;46.042;14.472;2022-12-31T13:23:06;4.53;;;3.23;;
9821;SDS011;4950;46.042;14.472;2022-12-31T13:25:48;5.93;;;3.63;;
9821;SDS011;4950;46.042;14.472;2022-12-31T13:28:24;3.93;;;2.83;;
9821;SDS011;4950;46.042;14.472;2022-12-31T13:30:53;5.60;;;3.33;;
9821;SDS011;4950;46.042;14.472;2022-12-31T13:33:23;4.97;;;2.97;;
9821;SDS011;4950;46.042;14.472;2022-12-31T13:35:54;5.73;;;3.70;;
9821;SDS011;4950;46.042;14.472;2022-12-31T13:38:23;5.27;;;3.67;;
9821;SDS011;4950;46.042;14.472;2022-12-31T13:40:55;4.67;;;3.60;;
9821;SDS011;4950;46.042;14.472;2022-12-31T13:43:28;5.30;;;3.70;;
9821;SDS011;4950;46.042;14.472;2022-12-31T13:46:04;6.03;;;3.90;;
9821;SDS011;4950;46.042;14.472;2022-12-31T13:48:39;4.50;;;3.87;;
9821;SDS011;4950;46.042;14.472;2022-12-31T13:51:16;5.73;;;3.73;;
9821;SDS011;4950;46.042;14.472;2022-12-31T13:53:50;4.70;;;3.93;;
9821;SDS011;4950;46.042;14.472;2022-12-31T13:56:23;5.07;;;3.63;;
9821;SDS011;4950;46.042;14.472;2022-12-31T13:58:54;5.80;;;3.87;;
9821;SDS011;4950;46.042;14.472;2022-12-31T14:01:27;4.80;;;3.97;;
9821;SDS011;4950;46.042;14.472;2022-12-31T14:04:01;4.80;;;3.57;;
9821;SDS011;4950;46.042;14.472;2022-12-31T14:06:33;6.03;;;3.80;;
9821;SDS011;4950;46.042;14.472;2022-12-31T14:09:05;4.53;;;3.37;;
9821;SDS011;4950;46.042;14.472;2022-12-31T14:11:40;4.53;;;3.93;;
9821;SDS011;4950;46.042;14.472;2022-12-31T14:14:20;5.80;;;3.87;;
9821;SDS011;4950;46.042;14.472;2022-12-31T14:16:56;5.07;;;3.57;;
9821;SDS011;4950;46.042;14.472;2022-12-31T14:19:40;4.30;;;3.87;;
9821;SDS011;4950;46.042;14.472;2022-12-31T14:22:21;6.20;;;4.60;;
9821;SDS011;4950;46.042;14.472;2022-12-31T14:24:54;4.97;;;4.37;;
9821;SDS011;4950;46.042;14.472;2022-12-31T14:27:23;4.77;;;4.10;;
9821;SDS011;4950;46.042;14.472;2022-12-31T14:29:54;6.57;;;4.37;;
9821;SDS011;4950;46.042;14.472;2022-12-31T14:32:38;4.47;;;4.07;;
9821;SDS011;4950;46.042;14.472;2022-12-31T14:35:17;4.57;;;4.10;;
9821;SDS011;4950;46.042;14.472;2022-12-31T14:37:57;5.97;;;4.60;;
9821;SDS011;4950;46.042;14.472;2022-12-31T14:40:35;7.63;;;4.87;;
9821;SDS011;4950;46.042;14.472;2022-12-31T14:43:13;6.27;;;4.53;;
9821;SDS011;4950;46.042;14.472;2022-12-31T14:45:50;5.47;;;3.83;;
9821;SDS011;4950;46.042;14.472;2022-12-31T14:48:28;6.07;;;4.40;;
9821;SDS011;4950;46.042;14.472;2022-12-31T14:51:05;5.70;;;4.70;;
9821;SDS011;4950;46.042;14.472;2022-12-31T14:53:34;7.63;;;5.00;;
9821;SDS011;4950;46.042;14.472;2022-12-31T14:56:01;7.30;;;5.13;;
9821;SDS011;4950;46.042;14.472;2022-12-31T14:58:30;8.63;;;5.63;;
9821;SDS011;4950;46.042;14.472;2022-12-31T15:01:00;7.60;;;4.83;;
9821;SDS011;4950;46.042;14.472;2022-12-31T15:03:32;7.50;;;5.03;;
9821;SDS011;4950;46.042;14.472;2022-12-31T15:06:02;6.90;;;5.07;;
9821;SDS011;4950;46.042;14.472;2022-12-31T15:08:50;9.80;;;5.60;;
9821;SDS011;4950;46.042;14.472;2022-12-31T15:11:35;8.37;;;5.50;;
9821;SDS011;4950;46.042;14.472;2022-12-31T15:17:11;6.70;;;5.53;;
9821;SDS011;4950;46.042;14.472;2022-12-31T15:22:58;7.50;;;5.17;;
9821;SDS011;4950;46.042;14.472;2022-12-31T15:25:30;8.70;;;5.63;;
9821;SDS011;4950;46.042;14.472;2022-12-31T15:27:58;10.53;;;5.93;;
9821;SDS011;4950;46.042;14.472;2022-12-31T15:30:34;8.57;;;5.90;;
9821;SDS011;4950;46.042;14.472;2022-12-31T15:33:04;10.37;;;6.87;;
9821;SDS011;4950;46.042;14.472;2022-12-31T15:35:44;9.50;;;6.40;;
9821;SDS011;4950;46.042;14.472;2022-12-31T15:38:17;8.97;;;6.70;;
9821;SDS011;4950;46.042;14.472;2022-12-31T15:40:57;8.13;;;6.83;;
9821;SDS011;4950;46.042;14.472;2022-12-31T15:43:28;9.93;;;7.57;;
9821;SDS011;4950;46.042;14.472;2022-12-31T15:46:00;10.73;;;8.30;;
9821;SDS011;4950;46.042;14.472;2022-12-31T15:48:31;13.73;;;7.90;;
9821;SDS011;4950;46.042;14.472;2022-12-31T15:51:06;11.10;;;8.70;;
9821;SDS011;4950;46.042;14.472;2022-12-31T15:53:42;10.20;;;8.07;;
9821;SDS011;4950;46.042;14.472;2022-12-31T15:56:18;10.63;;;8.50;;
9821;SDS011;4950;46.042;14.472;2022-12-31T15:58:46;11.27;;;7.63;;
9821;SDS011;4950;46.042;14.472;2022-12-31T16:01:26;7.33;;;6.23;;
9821;SDS011;4950;46.042;14.472;2022-12-31T16:03:55;9.13;;;7.03;;
9821;SDS011;4950;46.042;14.472;2022-12-31T16:06:25;9.23;;;6.10;;
9821;SDS011;4950;46.042;14.472;2022-12-31T16:08:54;10.73;;;6.83;;
9821;SDS011;4950;46.042;14.472;2022-12-31T16:11:22;6.80;;;6.10;;
9821;SDS011;4950;46.042;14.472;2022-12-31T16:13:51;6.47;;;5.07;;
9821;SDS011;4950;46.042;14.472;2022-12-31T16:16:20;7.23;;;4.60;;
9821;SDS011;4950;46.042;14.472;2022-12-31T16:18:48;7.30;;;5.17;;